Time;durP1;ratioP1;P1;durP2;ratioP2;P2;SDS_P1;SDS_P2;PMS_P1;PMS_P2;Temp;Humidity;BMP_temperature;BMP_pressure;BME280_temperature;BME280_humidity;BME280_pressure;Samples;Min_cycle;Max_cycle;Signal;HPM_P1;HPM_P2
2021/12/21 00:00:13;;;;;;;13.83;9.37;;;1.20;99.90;;;;;;5063379;28;20423;-82
2021/12/21 00:02:44;;;;;;;15.00;8.40;;;1.10;99.90;;;;;;5070589;28;20181;-83
2021/12/21 00:05:16;;;;;;;15.27;9.53;;;1.00;99.90;;;;;;5065400;28;20473;-83
2021/12/21 00:07:43;;;;;;;13.27;9.27;;;0.80;99.90;;;;;;5077001;28;20512;-83
2021/12/21 00:10:10;;;;;;;11.80;8.47;;;1.10;99.90;;;;;;5061859;28;20419;-84
2021/12/21 00:12:38;;;;;;;17.47;10.13;;;1.10;99.90;;;;;;5046183;28;20422;-83
2021/12/21 00:15:18;;;;;;;14.20;9.70;;;1.10;99.90;;;;;;5058879;28;20420;-83
2021/12/21 00:18:02;;;;;;;13.30;9.30;;;1.10;99.90;;;;;;5046885;28;20474;-83
2021/12/21 00:23:29;;;;;;;14.07;9.47;;;1.30;99.90;;;;;;5040893;28;20436;-83
2021/12/21 00:25:54;;;;;;;14.37;10.03;;;1.40;99.90;;;;;;5078124;28;20455;-83
2021/12/21 00:28:20;;;;;;;15.80;10.40;;;1.20;99.90;;;;;;5052039;28;20456;-84
2021/12/21 00:30:45;;;;;;;14.30;9.40;;;1.50;99.90;;;;;;5024760;28;20539;-82
2021/12/21 00:33:11;;;;;;;15.10;8.90;;;1.40;99.90;;;;;;5035931;28;20418;-81
2021/12/21 00:35:37;;;;;;;14.67;9.30;;;1.30;99.90;;;;;;5041252;28;20276;-82
2021/12/21 00:38:04;;;;;;;15.80;9.27;;;1.50;99.90;;;;;;5041627;28;20224;-84
2021/12/21 00:40:31;;;;;;;13.30;8.97;;;1.50;99.90;;;;;;5061313;28;20276;-82
2021/12/21 00:42:57;;;;;;;17.63;9.87;;;1.50;99.90;;;;;;5069310;28;20510;-83
2021/12/21 00:45:23;;;;;;;14.43;10.03;;;1.50;99.90;;;;;;5056831;28;20421;-81
2021/12/21 00:47:49;;;;;;;18.70;10.50;;;1.60;99.90;;;;;;5061632;28;20681;-83
2021/12/21 00:50:19;;;;;;;17.57;11.20;;;1.50;99.90;;;;;;5061773;28;20530;-83
2021/12/21 00:52:47;;;;;;;19.23;11.07;;;1.40;99.90;;;;;;5054568;28;20448;-83
2021/12/21 00:55:13;;;;;;;14.47;10.70;;;1.40;99.90;;;;;;5044660;28;20531;-82
2021/12/21 00:57:39;;;;;;;15.70;11.80;;;1.40;99.90;;;;;;5061145;28;20467;-83
2021/12/21 01:00:07;;;;;;;14.60;11.23;;;1.20;99.90;;;;;;5078503;28;20412;-84
2021/12/21 01:02:33;;;;;;;16.40;10.30;;;1.10;99.90;;;;;;5035550;28;20423;-81
2021/12/21 01:04:59;;;;;;;17.93;12.20;;;0.80;99.90;;;;;;5060628;28;20412;-81
2021/12/21 01:07:47;;;;;;;17.53;10.23;;;1.00;99.90;;;;;;5051142;28;20456;-83
2021/12/21 01:15:24;;;;;;;19.07;11.10;;;0.80;99.90;;;;;;5061761;28;20421;-83
2021/12/21 01:17:56;;;;;;;12.37;10.03;;;1.10;99.90;;;;;;5067764;28;21007;-83
2021/12/21 01:20:37;;;;;;;15.13;10.17;;;0.90;99.90;;;;;;5051668;28;20419;-82
2021/12/21 01:23:32;;;;;;;13.20;9.37;;;1.00;99.90;;;;;;5051669;28;20464;-83
2021/12/21 01:28:50;;;;;;;13.37;9.30;;;1.00;99.90;;;;;;5049305;28;20458;-83
2021/12/21 01:33:56;;;;;;;13.93;9.37;;;0.60;99.90;;;;;;5077600;28;20896;-84
2021/12/21 01:36:34;;;;;;;13.07;10.67;;;0.60;99.90;;;;;;5052148;28;20189;-83
2021/12/21 01:39:16;;;;;;;12.67;9.43;;;0.60;99.90;;;;;;5059845;28;20471;-83
2021/12/21 01:41:58;;;;;;;10.97;8.70;;;0.40;99.90;;;;;;5054166;28;20428;-83
2021/12/21 01:49:32;;;;;;;17.00;10.00;;;0.30;99.90;;;;;;5065662;28;20419;-83
2021/12/21 01:49:57;;;;;;;14.47;10.00;;;0.10;99.90;;;;;;5064154;28;20890;-84
2021/12/21 01:52:25;;;;;;;10.50;8.53;;;0.40;99.90;;;;;;5077826;28;20449;-85
2021/12/21 01:54:52;;;;;;;12.27;9.60;;;0.40;99.90;;;;;;5043793;28;20185;-80
2021/12/21 01:57:18;;;;;;;16.70;9.90;;;0.50;99.90;;;;;;5027447;28;20477;-84
2021/12/21 01:59:45;;;;;;;12.37;10.33;;;0.40;99.90;;;;;;5057461;28;20991;-83
2021/12/21 02:02:13;;;;;;;15.00;11.07;;;0.60;99.90;;;;;;5060391;28;20429;-86
2021/12/21 02:04:40;;;;;;;12.97;10.20;;;0.40;99.90;;;;;;5059935;28;20484;-81
2021/12/21 02:07:06;;;;;;;13.40;9.73;;;0.50;99.90;;;;;;5059735;28;20930;-84
2021/12/21 02:09:37;;;;;;;13.87;9.70;;;0.30;99.90;;;;;;5060285;28;20416;-82
2021/12/21 02:12:11;;;;;;;13.87;9.70;;;0.40;99.90;;;;;;5049660;28;20445;-84
2021/12/21 02:14:38;;;;;;;12.17;9.87;;;-0.10;99.90;;;;;;5042956;28;20423;-83
2021/12/21 02:22:45;;;;;;;16.87;9.97;;;-0.10;99.90;;;;;;5073254;28;20427;-82
2021/12/21 02:25:39;;;;;;;15.53;10.30;;;-0.10;99.90;;;;;;5078094;28;20408;-83
2021/12/21 02:28:23;;;;;;;12.77;9.23;;;-0.30;99.90;;;;;;5056939;28;20417;-84
2021/12/21 02:30:53;;;;;;;13.33;9.53;;;-0.20;99.90;;;;;;5045937;28;20450;-84
2021/12/21 02:33:20;;;;;;;11.27;9.93;;;-0.10;99.90;;;;;;5043367;28;20419;-85
2021/12/21 02:35:46;;;;;;;14.33;9.70;;;-0.10;99.90;;;;;;5059872;28;20480;-83
2021/12/21 02:38:12;;;;;;;12.80;9.47;;;-0.10;99.90;;;;;;5036356;28;20475;-83
2021/12/21 02:40:38;;;;;;;15.73;10.27;;;-0.10;99.90;;;;;;5059601;28;20420;-81
2021/12/21 02:43:05;;;;;;;13.87;9.57;;;0.10;99.90;;;;;;5043573;28;20189;-85
2021/12/21 02:45:31;;;;;;;11.60;9.20;;;-0.20;99.90;;;;;;5059355;28;20449;-82
2021/12/21 02:47:57;;;;;;;12.57;8.00;;;-0.10;99.90;;;;;;5059727;28;20538;-83
2021/12/21 02:50:23;;;;;;;11.00;9.07;;;-0.20;99.90;;;;;;5076472;28;20419;-82
2021/12/21 02:52:50;;;;;;;15.20;9.33;;;-0.20;99.90;;;;;;5059338;28;20454;-83
2021/12/21 02:55:17;;;;;;;13.70;9.13;;;-0.20;99.90;;;;;;5042614;28;20427;-84
2021/12/21 02:57:43;;;;;;;15.60;11.60;;;-0.10;99.90;;;;;;5059512;28;20473;-82
2021/12/21 03:00:10;;;;;;;12.03;8.50;;;-0.40;99.90;;;;;;5055483;28;20447;-81
2021/12/21 03:02:35;;;;;;;15.53;10.30;;;-0.30;99.90;;;;;;5046543;28;20190;-83
2021/12/21 03:05:02;;;;;;;14.20;9.10;;;-0.30;99.90;;;;;;5057988;28;20521;-81
2021/12/21 03:08:12;;;;;;;11.47;9.17;;;-0.30;99.90;;;;;;5033531;28;20209;-84
2021/12/21 03:10:23;;;;;;;12.33;9.40;;;-0.10;99.90;;;;;;5065829;28;20438;-81
2021/12/21 03:15:23;;;;;;;14.50;10.10;;;0.10;99.90;;;;;;5056328;28;20402;-81
2021/12/21 03:17:50;;;;;;;15.57;9.47;;;0.00;99.90;;;;;;5060977;28;20475;-84
2021/12/21 03:20:16;;;;;;;13.43;9.83;;;-0.10;99.90;;;;;;5080209;28;20393;-81
2021/12/21 03:22:42;;;;;;;11.53;8.30;;;-0.10;99.90;;;;;;5045662;28;20492;-84
2021/12/21 03:25:08;;;;;;;11.83;8.97;;;0.00;99.90;;;;;;5030077;28;20810;-83
2021/12/21 03:27:34;;;;;;;12.80;9.40;;;0.00;99.90;;;;;;5073852;28;20442;-82
2021/12/21 03:30:00;;;;;;;11.77;9.20;;;0.40;99.90;;;;;;5043174;28;20436;-80
2021/12/21 03:32:26;;;;;;;14.33;9.60;;;0.00;99.90;;;;;;5077165;28;20189;-84
2021/12/21 03:34:52;;;;;;;11.90;9.20;;;-0.20;99.90;;;;;;5052713;28;20435;-85
2021/12/21 03:37:17;;;;;;;14.80;9.10;;;-0.30;99.90;;;;;;5011951;28;20251;-82
2021/12/21 03:39:45;;;;;;;15.53;8.40;;;-0.40;99.90;;;;;;5075083;28;20185;-84
2021/12/21 03:42:12;;;;;;;12.30;9.00;;;-0.50;99.90;;;;;;5052550;28;20820;-82
2021/12/21 03:44:38;;;;;;;14.47;9.87;;;-0.50;99.90;;;;;;5071062;28;20407;-83
2021/12/21 03:47:04;;;;;;;13.40;9.40;;;-0.40;99.90;;;;;;5075928;28;20891;-83
2021/12/21 03:52:05;;;;;;;15.67;8.60;;;-0.70;99.90;;;;;;5080106;28;20514;-82
2021/12/21 03:54:31;;;;;;;17.50;9.90;;;-0.70;99.90;;;;;;5041935;28;20450;-82
2021/12/21 03:56:57;;;;;;;11.77;9.47;;;-0.40;99.90;;;;;;5045286;28;20415;-81
2021/12/21 03:59:23;;;;;;;11.77;9.07;;;-0.20;99.90;;;;;;5051836;28;20447;-82
2021/12/21 04:01:50;;;;;;;11.97;9.00;;;-0.10;99.90;;;;;;5055326;28;20484;-83
2021/12/21 04:04:19;;;;;;;10.67;8.77;;;0.00;99.90;;;;;;5062013;28;20193;-81
2021/12/21 04:06:46;;;;;;;10.40;8.87;;;-0.20;99.90;;;;;;5032110;28;20427;-80
2021/12/21 04:09:12;;;;;;;13.10;8.50;;;0.00;99.90;;;;;;5070003;28;20438;-83
2021/12/21 04:11:37;;;;;;;12.53;9.23;;;-0.30;99.90;;;;;;5043190;28;20943;-80
2021/12/21 04:14:03;;;;;;;11.97;9.53;;;-0.20;99.90;;;;;;5036704;28;20442;-81
2021/12/21 04:16:29;;;;;;;10.73;8.73;;;-0.40;99.90;;;;;;5032383;28;20208;-82
2021/12/21 04:18:55;;;;;;;12.53;8.60;;;-0.30;99.90;;;;;;5079138;28;20244;-82
2021/12/21 04:21:21;;;;;;;12.13;8.63;;;-0.10;99.90;;;;;;5032031;28;20185;-81
2021/12/21 04:23:47;;;;;;;10.50;8.93;;;-0.20;99.90;;;;;;5052399;28;20470;-83
2021/12/21 04:26:14;;;;;;;11.10;8.90;;;-0.10;99.90;;;;;;5040669;28;20394;-83
2021/12/21 04:28:41;;;;;;;11.10;9.30;;;-0.50;99.90;;;;;;5058502;28;20582;-82
2021/12/21 04:31:09;;;;;;;10.70;8.30;;;-0.50;99.90;;;;;;5062155;28;20448;-82
2021/12/21 04:33:35;;;;;;;13.40;8.53;;;-0.60;99.90;;;;;;5058201;28;21007;-80
2021/12/21 04:36:01;;;;;;;12.83;8.63;;;-0.60;99.90;;;;;;5059129;28;20458;-82
2021/12/21 04:38:32;;;;;;;14.17;9.73;;;-0.80;99.90;;;;;;5045911;28;20475;-80
2021/12/21 04:41:15;;;;;;;13.47;8.50;;;-0.50;99.90;;;;;;5058539;28;20427;-82
2021/12/21 04:43:42;;;;;;;9.50;8.13;;;-0.70;99.90;;;;;;5050251;28;20800;-83
2021/12/21 04:46:08;;;;;;;10.80;8.23;;;-0.70;99.90;;;;;;5035830;28;20426;-83
2021/12/21 04:48:34;;;;;;;12.53;9.33;;;-0.50;99.90;;;;;;5061108;28;20487;-82
2021/12/21 04:51:00;;;;;;;11.93;8.90;;;-0.50;99.90;;;;;;5035618;28;20422;-83
2021/12/21 04:53:26;;;;;;;13.50;9.30;;;-0.30;99.90;;;;;;5023001;28;20181;-82
2021/12/21 04:55:53;;;;;;;12.30;8.60;;;-0.20;99.90;;;;;;5076101;28;20423;-84
2021/12/21 04:58:19;;;;;;;13.90;9.53;;;-0.30;99.90;;;;;;5045038;28;20704;-83
2021/12/21 05:00:45;;;;;;;12.20;9.00;;;-0.20;99.90;;;;;;5045825;28;20514;-82
2021/12/21 05:03:11;;;;;;;11.70;8.63;;;-0.20;99.90;;;;;;5033180;28;20419;-83
2021/12/21 05:05:37;;;;;;;9.60;8.13;;;-0.30;99.90;;;;;;5063334;28;20423;-82
2021/12/21 05:08:20;;;;;;;10.20;8.50;;;-0.20;99.90;;;;;;5015819;28;20213;-83
2021/12/21 05:10:50;;;;;;;12.30;9.00;;;-0.10;99.90;;;;;;5062669;28;20602;-83
2021/12/21 05:13:17;;;;;;;10.70;8.37;;;-0.40;99.90;;;;;;5062688;28;20435;-84
2021/12/21 05:15:44;;;;;;;12.87;9.20;;;-0.30;99.90;;;;;;5050039;28;20436;-83
2021/12/21 05:18:10;;;;;;;11.40;8.67;;;-0.20;99.90;;;;;;5024332;28;21129;-83
2021/12/21 05:20:36;;;;;;;9.50;8.00;;;-0.20;99.90;;;;;;5063173;28;20494;-83
2021/12/21 05:23:02;;;;;;;11.40;8.33;;;0.10;99.90;;;;;;5062186;28;20431;-85
2021/12/21 05:25:28;;;;;;;9.80;7.93;;;-0.10;99.90;;;;;;5033362;28;20505;-84
2021/12/21 05:27:54;;;;;;;9.93;8.37;;;-0.20;99.90;;;;;;5071786;28;20208;-83
2021/12/21 05:30:19;;;;;;;9.30;8.07;;;-0.50;99.90;;;;;;5033808;28;20443;-82
2021/12/21 05:32:45;;;;;;;14.03;9.67;;;-0.40;99.90;;;;;;5037180;28;20201;-84
2021/12/21 05:35:11;;;;;;;10.03;8.40;;;-0.40;99.90;;;;;;5062135;28;20189;-83
2021/12/21 05:37:39;;;;;;;11.57;7.77;;;-0.50;99.90;;;;;;5039024;28;20245;-84
2021/12/21 05:40:12;;;;;;;12.00;8.97;;;-0.50;99.90;;;;;;5036219;28;20189;-84
2021/12/21 05:42:38;;;;;;;10.00;8.03;;;-0.40;99.90;;;;;;5042906;28;20415;-84
2021/12/21 05:45:05;;;;;;;12.97;9.63;;;-0.30;99.90;;;;;;5039687;28;20394;-82
2021/12/21 05:47:30;;;;;;;10.07;8.50;;;-0.10;99.90;;;;;;5075044;28;20501;-83
2021/12/21 05:49:56;;;;;;;9.37;7.90;;;-0.10;99.90;;;;;;5039150;28;20940;-84
2021/12/21 05:52:22;;;;;;;11.37;8.10;;;-0.20;99.90;;;;;;5059189;28;20393;-83
2021/12/21 05:54:49;;;;;;;10.23;7.63;;;-0.20;99.90;;;;;;5047412;28;20217;-84
2021/12/21 05:57:15;;;;;;;10.60;7.67;;;-0.50;99.90;;;;;;5035302;28;20209;-82
2021/12/21 05:59:41;;;;;;;10.43;8.43;;;-0.60;99.90;;;;;;5058283;28;20408;-83
2021/12/21 06:02:08;;;;;;;11.90;8.07;;;-0.90;99.90;;;;;;5059037;28;20560;-82
2021/12/21 06:04:34;;;;;;;9.80;8.03;;;-0.70;99.90;;;;;;5044350;28;20416;-84
2021/12/21 06:06:59;;;;;;;9.93;8.50;;;-0.80;99.90;;;;;;5062922;28;20776;-84
2021/12/21 06:09:26;;;;;;;9.40;7.67;;;-0.70;99.90;;;;;;5041145;28;20188;-81
2021/12/21 06:12:07;;;;;;;10.90;8.60;;;-0.90;99.90;;;;;;5037808;28;20185;-83
2021/12/21 06:28:06;;;;;;;10.60;9.00;;;-0.90;99.90;;;;;;5084090;28;20450;-84
2021/12/21 06:30:33;;;;;;;14.80;10.43;;;-0.80;99.90;;;;;;5046448;28;20714;-84
2021/12/21 06:32:59;;;;;;;12.27;9.30;;;-1.10;99.90;;;;;;5057694;28;20435;-84
2021/12/21 06:35:25;;;;;;;13.37;9.30;;;-1.20;99.90;;;;;;5038526;28;20821;-79
2021/12/21 06:37:51;;;;;;;12.97;9.43;;;-1.10;99.90;;;;;;5038163;28;20480;-82
2021/12/21 06:40:17;;;;;;;11.60;8.90;;;-1.10;99.90;;;;;;5061382;28;20276;-83
2021/12/21 06:42:45;;;;;;;10.67;9.30;;;-1.20;99.90;;;;;;5075482;28;20462;-81
2021/12/21 06:45:25;;;;;;;12.90;8.33;;;-1.30;99.90;;;;;;5057443;28;20419;-81
2021/12/21 06:51:45;;;;;;;12.40;8.80;;;-1.00;99.90;;;;;;5077719;28;20419;-80
2021/12/21 06:53:30;;;;;;;9.63;8.47;;;-1.30;99.90;;;;;;5065591;28;20819;-81
2021/12/21 06:55:56;;;;;;;11.17;9.00;;;-1.00;99.90;;;;;;5036306;28;20528;-82
2021/12/21 06:58:22;;;;;;;13.43;8.07;;;-0.90;99.90;;;;;;5078231;28;20232;-82
2021/12/21 07:00:49;;;;;;;11.70;7.60;;;-1.00;99.90;;;;;;5055877;28;20178;-81
2021/12/21 07:03:15;;;;;;;10.30;7.53;;;-1.00;99.90;;;;;;5041588;28;20208;-80
2021/12/21 07:05:41;;;;;;;11.13;8.37;;;-0.60;99.90;;;;;;5064996;28;20804;-82
2021/12/21 07:08:15;;;;;;;12.30;9.60;;;-0.70;99.90;;;;;;5045851;28;20422;-83
2021/12/21 07:10:50;;;;;;;15.97;9.50;;;-0.80;99.90;;;;;;5025528;28;20442;-83
2021/12/21 07:18:44;;;;;;;15.10;9.60;;;-1.00;99.90;;;;;;5056598;28;20444;-83
2021/12/21 07:21:10;;;;;;;10.13;8.77;;;-0.80;99.90;;;;;;5043233;28;20476;-83
2021/12/21 07:23:36;;;;;;;12.60;9.67;;;-1.00;99.90;;;;;;5034709;28;20185;-82
2021/12/21 07:26:01;;;;;;;10.70;8.53;;;-1.00;99.90;;;;;;5074942;28;20181;-83
2021/12/21 07:28:27;;;;;;;9.27;7.53;;;-1.10;99.90;;;;;;5058573;28;20201;-81
2021/12/21 07:30:53;;;;;;;11.30;8.50;;;-1.00;99.90;;;;;;5050089;28;20259;-82
2021/12/21 07:33:19;;;;;;;12.03;8.17;;;-0.80;99.90;;;;;;5041266;28;20190;-82
2021/12/21 07:35:45;;;;;;;10.93;8.77;;;-0.90;99.90;;;;;;5040220;28;20423;-83
2021/12/21 07:38:11;;;;;;;14.13;8.10;;;-0.70;99.90;;;;;;5043617;28;20704;-81
2021/12/21 07:40:38;;;;;;;11.93;7.53;;;-0.50;99.90;;;;;;5042295;28;20185;-82
2021/12/21 07:43:03;;;;;;;10.83;8.20;;;-0.70;99.90;;;;;;5057153;28;20473;-82
2021/12/21 07:45:29;;;;;;;13.93;8.70;;;-0.50;99.90;;;;;;5054799;28;21149;-84
2021/12/21 07:47:55;;;;;;;11.13;7.93;;;-0.70;99.90;;;;;;5067606;28;20236;-82
2021/12/21 07:50:21;;;;;;;11.33;7.87;;;-0.60;99.90;;;;;;5077895;28;20188;-80
2021/12/21 07:52:47;;;;;;;12.10;7.90;;;-0.40;99.90;;;;;;5066957;28;20478;-82
2021/12/21 07:55:13;;;;;;;12.40;8.50;;;-0.80;99.90;;;;;;5037347;28;20443;-81
2021/12/21 07:57:39;;;;;;;11.80;9.17;;;-0.70;99.90;;;;;;5053170;28;20446;-84
2021/12/21 08:00:07;;;;;;;12.77;8.23;;;-0.40;99.90;;;;;;5020117;28;20201;-85
2021/12/21 08:02:33;;;;;;;11.90;8.17;;;-0.80;99.90;;;;;;5023918;28;20181;-82
2021/12/21 08:05:04;;;;;;;12.50;8.50;;;-0.80;99.90;;;;;;5032860;28;20399;-84
2021/12/21 08:07:34;;;;;;;15.40;9.37;;;-0.90;99.90;;;;;;5041612;28;20455;-84
2021/12/21 08:10:16;;;;;;;15.50;9.60;;;-0.60;99.90;;;;;;5042070;28;21000;-84
2021/12/21 08:12:42;;;;;;;12.17;8.20;;;-0.80;99.90;;;;;;5078543;28;20510;-82
2021/12/21 08:15:09;;;;;;;15.80;9.37;;;-0.80;99.90;;;;;;5043925;28;20431;-80
2021/12/21 08:17:34;;;;;;;13.10;9.20;;;-0.80;99.90;;;;;;5060585;28;20445;-82
2021/12/21 08:20:00;;;;;;;10.70;8.63;;;-0.60;99.90;;;;;;5024681;28;20456;-82
2021/12/21 08:22:26;;;;;;;12.20;9.37;;;-0.90;99.90;;;;;;5042354;28;20201;-82
2021/12/21 08:24:51;;;;;;;20.83;9.70;;;-0.80;99.90;;;;;;5038198;28;20185;-80
2021/12/21 08:27:17;;;;;;;13.87;9.70;;;-0.90;99.90;;;;;;5059669;28;20239;-82
2021/12/21 08:29:43;;;;;;;12.37;8.30;;;-0.50;99.90;;;;;;5037087;28;20278;-83
2021/12/21 08:32:09;;;;;;;12.50;8.77;;;-0.50;99.90;;;;;;5047909;28;20205;-83
2021/12/21 08:34:34;;;;;;;11.23;8.30;;;-0.50;99.90;;;;;;5038318;28;20431;-80
2021/12/21 08:37:00;;;;;;;12.00;8.67;;;-0.50;99.90;;;;;;5043743;28;20227;-80
2021/12/21 08:39:27;;;;;;;10.80;8.63;;;-0.30;99.90;;;;;;5037513;28;20422;-80
2021/12/21 08:41:58;;;;;;;12.43;8.30;;;0.10;99.90;;;;;;5042144;28;20205;-84
2021/12/21 08:44:27;;;;;;;14.40;9.97;;;0.20;99.90;;;;;;5079454;28;20494;-82
2021/12/21 08:46:57;;;;;;;14.80;8.90;;;0.50;99.90;;;;;;5029960;28;20959;-83
2021/12/21 08:49:23;;;;;;;16.50;9.37;;;0.50;99.90;;;;;;5077349;28;20451;-82
2021/12/21 08:51:49;;;;;;;11.03;9.10;;;0.80;99.90;;;;;;5065469;28;20428;-83
2021/12/21 08:54:15;;;;;;;14.00;9.17;;;1.00;99.90;;;;;;5046130;28;21009;-84
2021/12/21 08:56:40;;;;;;;11.47;8.50;;;1.00;99.90;;;;;;5035010;28;20257;-85
2021/12/21 08:59:07;;;;;;;12.90;8.60;;;1.20;99.90;;;;;;5070849;28;20226;-83
2021/12/21 09:01:32;;;;;;;13.43;8.70;;;1.50;99.90;;;;;;5058582;28;20531;-80
2021/12/21 09:03:58;;;;;;;11.03;8.50;;;1.80;99.90;;;;;;5046009;28;20427;-83
2021/12/21 09:06:24;;;;;;;10.90;8.60;;;2.30;99.90;;;;;;5046474;28;20235;-84
2021/12/21 09:08:50;;;;;;;13.87;8.17;;;2.40;99.90;;;;;;5041917;28;20213;-85
2021/12/21 09:11:16;;;;;;;14.27;8.60;;;2.60;99.90;;;;;;5054216;28;20496;-81
2021/12/21 09:13:41;;;;;;;10.40;8.53;;;2.70;99.90;;;;;;5057611;28;20204;-84
2021/12/21 09:16:07;;;;;;;13.00;8.33;;;3.10;99.90;;;;;;5043978;28;20204;-85
2021/12/21 09:18:33;;;;;;;9.10;6.30;;;2.90;99.90;;;;;;5037523;28;20209;-83
2021/12/21 09:20:58;;;;;;;8.90;7.33;;;3.20;99.90;;;;;;5029039;28;20190;-81
2021/12/21 09:23:24;;;;;;;8.80;6.70;;;3.50;99.90;;;;;;5034060;28;20185;-81
2021/12/21 09:25:50;;;;;;;9.47;6.50;;;3.40;99.90;;;;;;5054897;28;20651;-82
2021/12/21 09:28:15;;;;;;;9.07;6.70;;;3.80;99.90;;;;;;5060860;28;20212;-83
2021/12/21 09:30:41;;;;;;;8.67;7.10;;;3.80;99.90;;;;;;5060459;28;20205;-81
2021/12/21 09:33:07;;;;;;;11.60;8.43;;;4.10;99.90;;;;;;5041602;28;20182;-82
2021/12/21 09:35:33;;;;;;;17.10;8.30;;;4.00;99.90;;;;;;5062098;28;20276;-83
2021/12/21 09:37:58;;;;;;;11.63;8.63;;;4.40;99.90;;;;;;5061340;28;20261;-83
2021/12/21 09:40:28;;;;;;;10.10;7.10;;;4.80;99.90;;;;;;5050471;28;20213;-84
2021/12/21 09:42:55;;;;;;;11.90;8.17;;;5.10;99.90;;;;;;5042668;28;20181;-85
2021/12/21 09:45:21;;;;;;;9.37;7.83;;;5.10;99.90;;;;;;5040698;28;20444;-85
2021/12/21 09:47:49;;;;;;;12.00;7.50;;;5.40;99.90;;;;;;5039415;28;20468;-84
2021/12/21 09:50:17;;;;;;;8.87;7.00;;;5.80;99.90;;;;;;5051871;28;20772;-83
2021/12/21 09:52:43;;;;;;;12.97;8.47;;;5.50;99.90;;;;;;5053128;28;20420;-86
2021/12/21 09:55:12;;;;;;;10.90;8.23;;;6.00;99.90;;;;;;5047180;28;20462;-83
2021/12/21 09:57:38;;;;;;;11.73;7.67;;;5.90;99.90;;;;;;5078515;28;20998;-84
2021/12/21 10:00:11;;;;;;;11.97;6.83;;;6.40;99.90;;;;;;5061795;28;20438;-84
2021/12/21 10:02:37;;;;;;;8.00;6.73;;;6.50;99.90;;;;;;5035550;28;20417;-84
2021/12/21 10:05:10;;;;;;;11.30;8.50;;;7.20;99.90;;;;;;5053664;28;20482;-83
2021/12/21 10:07:36;;;;;;;8.90;7.83;;;7.60;99.90;;;;;;5019878;28;20624;-82
2021/12/21 10:10:12;;;;;;;10.80;7.60;;;7.90;99.90;;;;;;5025880;28;20425;-85
2021/12/21 10:12:43;;;;;;;10.70;8.03;;;8.30;99.60;;;;;;5055334;28;20454;-84
2021/12/21 10:15:10;;;;;;;10.67;8.33;;;8.40;98.70;;;;;;5049763;28;20419;-83
2021/12/21 10:17:36;;;;;;;12.53;7.70;;;8.50;98.00;;;;;;5053629;28;20471;-79
2021/12/21 10:20:06;;;;;;;11.27;7.90;;;8.50;97.60;;;;;;5026661;28;20528;-81
2021/12/21 10:22:32;;;;;;;9.37;7.80;;;8.80;98.00;;;;;;5068397;28;20420;-83
2021/12/21 10:24:58;;;;;;;10.50;8.27;;;8.80;97.70;;;;;;5030079;28;20486;-85
2021/12/21 10:27:25;;;;;;;9.63;8.30;;;8.70;97.60;;;;;;5046498;28;20208;-84
2021/12/21 10:29:55;;;;;;;9.80;7.90;;;8.30;97.60;;;;;;5051545;28;20908;-84
2021/12/21 10:32:28;;;;;;;9.17;7.80;;;8.20;98.80;;;;;;5063396;28;20439;-81
2021/12/21 10:35:06;;;;;;;13.40;7.83;;;8.00;99.30;;;;;;5066816;28;20411;-83
2021/12/21 10:37:34;;;;;;;11.23;8.47;;;7.60;99.30;;;;;;5035169;28;20470;-83
2021/12/21 10:40:11;;;;;;;12.53;9.17;;;7.20;99.80;;;;;;5067779;28;20435;-83
2021/12/21 10:42:45;;;;;;;8.93;7.40;;;6.80;99.90;;;;;;5096839;28;20438;-83
2021/12/21 10:45:11;;;;;;;9.13;8.17;;;6.60;99.90;;;;;;5066009;28;20419;-84
2021/12/21 10:47:37;;;;;;;11.20;8.93;;;6.70;99.90;;;;;;5047865;28;20435;-83
2021/12/21 10:50:05;;;;;;;10.00;8.00;;;6.70;99.90;;;;;;5067841;28;20445;-84
2021/12/21 10:52:31;;;;;;;10.77;8.10;;;6.50;99.90;;;;;;5048516;28;20253;-83
2021/12/21 10:54:57;;;;;;;11.83;7.20;;;6.30;99.90;;;;;;5047854;28;20448;-83
2021/12/21 10:57:29;;;;;;;13.00;8.03;;;6.50;99.90;;;;;;5049387;28;20455;-81
2021/12/21 10:59:58;;;;;;;10.57;8.70;;;6.50;99.90;;;;;;5050618;28;20420;-83
2021/12/21 11:02:33;;;;;;;11.60;8.23;;;6.50;99.90;;;;;;5038419;28;20408;-84
2021/12/21 11:05:10;;;;;;;12.70;9.53;;;6.30;99.90;;;;;;5061078;28;20704;-84
2021/12/21 11:07:54;;;;;;;14.67;9.43;;;6.20;99.90;;;;;;5067289;28;20434;-84
2021/12/21 11:10:27;;;;;;;13.27;8.90;;;5.70;99.90;;;;;;5067504;28;20445;-83
2021/12/21 11:13:05;;;;;;;9.77;7.90;;;5.60;99.90;;;;;;5067609;28;20727;-81
2021/12/21 11:15:40;;;;;;;13.70;10.10;;;5.50;99.90;;;;;;5084701;28;20806;-84
2021/12/21 11:18:09;;;;;;;13.43;8.73;;;5.50;99.90;;;;;;5067788;28;20456;-83
2021/12/21 11:20:37;;;;;;;10.77;8.67;;;5.40;99.90;;;;;;5043483;28;20424;-85
2021/12/21 11:23:06;;;;;;;10.70;8.80;;;5.50;99.90;;;;;;5052649;28;20412;-85
2021/12/21 11:25:33;;;;;;;11.77;10.13;;;5.20;99.90;;;;;;5055145;28;20404;-83
2021/12/21 11:28:02;;;;;;;12.07;10.03;;;5.00;99.90;;;;;;5056663;28;20808;-81
2021/12/21 11:30:29;;;;;;;13.07;9.63;;;5.00;99.90;;;;;;5041664;28;20431;-83
2021/12/21 11:32:57;;;;;;;14.20;9.13;;;5.30;99.90;;;;;;5067821;28;20422;-83
2021/12/21 11:37:58;;;;;;;12.90;9.97;;;5.10;99.90;;;;;;5051475;28;20890;-83
2021/12/21 11:40:30;;;;;;;15.23;10.80;;;5.50;99.90;;;;;;5047973;28;20788;-84
2021/12/21 11:43:23;;;;;;;11.50;9.97;;;5.50;99.90;;;;;;5067764;28;20789;-83
2021/12/21 11:45:55;;;;;;;11.17;9.90;;;5.60;99.90;;;;;;5074086;28;20416;-83
2021/12/21 11:48:46;;;;;;;15.70;11.07;;;5.90;99.90;;;;;;5064136;28;20431;-82
2021/12/21 11:51:13;;;;;;;14.67;10.60;;;6.70;99.90;;;;;;5079181;28;20419;-81
2021/12/21 11:53:39;;;;;;;12.53;9.90;;;8.80;99.90;;;;;;5031822;28;20423;-83
2021/12/21 11:56:07;;;;;;;16.50;9.40;;;11.20;95.00;;;;;;5047521;28;20511;-84
2021/12/21 11:58:41;;;;;;;11.20;10.07;;;13.60;90.90;;;;;;5061489;28;20482;-84
2021/12/21 12:01:43;;;;;;;13.90;9.80;;;15.40;77.80;;;;;;5075362;28;20478;-85
2021/12/21 12:04:11;;;;;;;9.90;8.90;;;16.60;69.00;;;;;;5039349;28;20424;-86
2021/12/21 12:06:48;;;;;;;10.83;8.87;;;17.30;64.10;;;;;;5048757;28;20561;-83
2021/12/21 12:09:24;;;;;;;9.23;8.33;;;17.40;61.60;;;;;;5049644;28;20526;-81
2021/12/21 12:11:50;;;;;;;9.33;8.40;;;17.50;59.70;;;;;;5033868;28;20439;-85
2021/12/21 12:14:22;;;;;;;10.17;9.10;;;17.10;59.90;;;;;;5027501;28;20425;-84
2021/12/21 12:16:55;;;;;;;12.03;10.30;;;17.00;61.50;;;;;;5037300;28;20447;-82
2021/12/21 12:19:32;;;;;;;10.20;8.57;;;16.80;59.70;;;;;;5060443;28;20562;-82
2021/12/21 12:22:05;;;;;;;10.37;8.63;;;15.40;61.00;;;;;;5052113;28;20470;-82
2021/12/21 12:24:37;;;;;;;11.00;8.60;;;13.00;67.70;;;;;;5079915;28;20920;-82
2021/12/21 12:27:10;;;;;;;10.37;8.97;;;10.80;76.50;;;;;;5042154;28;20435;-84
2021/12/21 12:29:58;;;;;;;10.70;9.60;;;9.50;87.60;;;;;;5069297;28;20424;-83
2021/12/21 12:32:34;;;;;;;10.53;9.40;;;8.20;93.60;;;;;;5045645;28;20481;-81
2021/12/21 12:35:03;;;;;;;12.37;10.60;;;7.40;96.80;;;;;;5055631;28;20884;-82
2021/12/21 12:37:29;;;;;;;15.23;10.40;;;7.20;99.20;;;;;;5046360;28;20514;-81
2021/12/21 12:40:04;;;;;;;11.70;10.50;;;6.60;99.90;;;;;;5055120;28;20415;-84
2021/12/21 12:42:32;;;;;;;11.37;10.17;;;6.50;99.90;;;;;;5062090;28;20180;-82
2021/12/21 12:45:16;;;;;;;11.93;9.83;;;6.20;99.90;;;;;;5080969;28;20920;-84
2021/12/21 12:47:49;;;;;;;13.60;11.03;;;6.10;99.90;;;;;;5058949;28;20444;-82
2021/12/21 12:50:30;;;;;;;11.10;9.90;;;5.80;99.90;;;;;;5063420;28;21035;-82
2021/12/21 12:53:05;;;;;;;13.07;10.73;;;5.60;99.90;;;;;;5046655;28;20979;-81
2021/12/21 12:55:55;;;;;;;11.57;10.20;;;5.60;99.90;;;;;;5067168;28;20454;-83
2021/12/21 12:58:24;;;;;;;14.70;11.23;;;5.20;99.90;;;;;;5045888;28;20463;-82
2021/12/21 13:00:56;;;;;;;14.40;10.77;;;5.20;99.90;;;;;;5080897;28;20423;-84
2021/12/21 13:03:35;;;;;;;15.53;11.83;;;5.10;99.90;;;;;;5045749;28;20432;-83
2021/12/21 13:06:08;;;;;;;14.47;11.57;;;5.20;99.90;;;;;;5072626;28;20431;-83
2021/12/21 13:08:33;;;;;;;13.20;10.23;;;4.90;99.90;;;;;;5066043;28;20450;-81
2021/12/21 13:11:00;;;;;;;13.30;10.73;;;4.90;99.90;;;;;;5060374;28;20421;-83
2021/12/21 13:13:38;;;;;;;15.20;11.10;;;5.10;99.90;;;;;;5026222;28;20198;-81
2021/12/21 13:16:17;;;;;;;16.70;11.63;;;4.70;99.90;;;;;;5061073;28;20485;-83
2021/12/21 13:18:55;;;;;;;16.30;12.20;;;4.60;99.90;;;;;;5052924;28;20468;-84
2021/12/21 13:22:01;;;;;;;12.33;11.03;;;4.70;99.90;;;;;;5061202;28;20422;-84
2021/12/21 13:24:33;;;;;;;13.73;11.90;;;4.60;99.90;;;;;;5024894;28;20421;-82
2021/12/21 13:27:03;;;;;;;19.33;13.50;;;4.60;99.90;;;;;;5050654;28;20433;-82
2021/12/21 13:29:32;;;;;;;16.33;13.40;;;4.30;99.90;;;;;;5030479;28;20485;-80
2021/12/21 13:32:01;;;;;;;16.00;12.17;;;4.40;99.90;;;;;;5062010;28;20450;-84
2021/12/21 13:34:27;;;;;;;14.97;12.17;;;4.40;99.90;;;;;;5064404;28;20749;-82
2021/12/21 13:36:55;;;;;;;14.77;12.40;;;4.50;99.90;;;;;;5077538;28;20556;-84
2021/12/21 13:39:26;;;;;;;15.27;12.73;;;4.40;99.90;;;;;;5073024;28;20610;-82
2021/12/21 13:42:02;;;;;;;21.73;13.33;;;4.50;99.90;;;;;;5072071;28;20487;-83